Time,TemperatureF,DewpointF,PressureIn,WindDirection,WindDirectionDegrees,WindSpeedMPH,WindSpeedGustMPH,Humidity,HourlyPrecipIn,Conditions,Clouds,dailyrainin,SoftwareType,DateUTC
2013-01-14 00:00:00,51.8,39.6,29.91,NW,323,2.0,2.0,63,0.00,,,0.00,Wunderground v.1.15,2013-01-13 23:00:00,
2013-01-14 00:15:00,52.2,39.6,29.91,NW,326,3.0,3.0,62,0.00,,,0.00,Wunderground v.1.15,2013-01-13 23:15:00,
2013-01-14 00:20:00,52.2,39.6,29.91,WNW,290,2.0,3.0,62,0.00,,,0.00,Wunderground v.1.15,2013-01-13 23:20:00,
2013-01-14 00:30:00,52.2,39.6,29.92,WNW,290,0.0,2.0,62,0.00,,,0.00,Wunderground v.1.15,2013-01-13 23:30:00,
2013-01-14 00:40:00,51.7,39.1,29.92,SW,236,2.0,2.0,62,0.00,,,0.00,Wunderground v.1.15,2013-01-13 23:40:00,
2013-01-14 00:45:00,51.2,39.0,29.92,SW,236,2.0,3.0,63,0.00,,,0.00,Wunderground v.1.15,2013-01-13 23:45:00,
2013-01-14 00:50:00,50.4,39.1,29.92,WSW,238,2.0,3.0,65,0.00,,,0.00,Wunderground v.1.15,2013-01-13 23:50:00,
2013-01-14 01:00:00,50.7,39.7,29.92,NW,312,5.0,6.0,66,0.00,,,0.00,Wunderground v.1.15,2013-01-14 00:00:00,
2013-01-14 01:10:00,51.3,39.9,29.92,NW,315,5.0,5.0,65,0.00,,,0.00,Wunderground v.1.15,2013-01-14 00:10:00,
2013-01-14 01:15:00,51.3,40.3,29.92,NW,315,4.0,5.0,66,0.00,,,0.00,Wunderground v.1.15,2013-01-14 00:15:00,
2013-01-14 01:20:00,51.2,40.2,29.92,NW,315,4.0,4.0,66,0.00,,,0.00,Wunderground v.1.15,2013-01-14 00:20:00,
2013-01-14 01:34:00,51.0,40.4,29.91,NW,315,3.0,3.0,67,0.00,,,0.00,Wunderground v.1.15,2013-01-14 00:34:00,
2013-01-14 01:39:00,50.9,40.3,29.91,NW,315,3.0,3.0,67,0.00,,,0.00,Wunderground v.1.15,2013-01-14 00:39:00,
2013-01-14 01:45:00,50.7,40.5,29.91,NW,315,3.0,3.0,68,0.00,,,0.00,Wunderground v.1.15,2013-01-14 00:45:00,
2013-01-14 01:55:00,50.6,40.8,29.92,NW,315,1.0,1.0,69,0.00,,,0.00,Wunderground v.1.15,2013-01-14 00:55:00,
2013-01-14 02:00:00,50.5,40.7,29.92,NW,315,0.0,0.0,69,0.00,,,0.00,Wunderground v.1.15,2013-01-14 01:00:00,
2013-01-14 02:10:00,50.4,41.0,29.92,NW,315,0.0,4.0,70,0.00,,,0.00,Wunderground v.1.15,2013-01-14 01:10:00,
2013-01-14 02:15:00,50.5,41.1,29.92,NW,315,1.0,4.0,70,0.00,,,0.00,Wunderground v.1.15,2013-01-14 01:15:00,
2013-01-14 02:20:00,50.6,41.2,29.92,NW,315,1.0,2.0,70,0.00,,,0.00,Wunderground v.1.15,2013-01-14 01:20:00,
2013-01-14 02:30:00,50.9,41.8,29.92,West,267,3.0,4.0,71,0.00,,,0.00,Wunderground v.1.15,2013-01-14 01:30:00,
2013-01-14 02:39:00,51.0,43.7,29.93,WSW,240,8.0,8.0,76,0.00,,,0.00,Wunderground v.1.15,2013-01-14 01:39:00,
2013-01-14 02:45:00,50.7,43.8,29.93,WSW,243,8.0,8.0,77,0.00,,,0.01,Wunderground v.1.15,2013-01-14 01:45:00,
2013-01-14 02:54:00,50.8,44.2,29.93,West,266,4.0,5.0,78,0.00,,,0.01,Wunderground v.1.15,2013-01-14 01:54:00,
2013-01-14 03:04:00,50.5,43.6,29.93,WNW,283,3.0,3.0,77,0.00,,,0.01,Wunderground v.1.15,2013-01-14 02:04:00,
2013-01-14 03:09:00,50.3,43.7,29.93,WNW,295,3.0,3.0,78,0.00,,,0.01,Wunderground v.1.15,2013-01-14 02:09:00,
2013-01-14 03:19:00,49.9,43.3,29.93,WNW,290,4.0,6.0,78,0.00,,,0.01,Wunderground v.1.15,2013-01-14 02:19:00,
2013-01-14 03:29:00,49.8,43.5,29.93,WNW,294,4.0,5.0,79,0.00,,,0.01,Wunderground v.1.15,2013-01-14 02:29:00,
2013-01-14 03:39:00,49.8,43.5,29.93,WNW,293,4.0,5.0,79,0.00,,,0.01,Wunderground v.1.15,2013-01-14 02:39:00,
2013-01-14 03:45:00,49.7,43.5,29.93,WNW,292,4.0,4.0,79,0.00,,,0.01,Wunderground v.1.15,2013-01-14 02:45:00,
2013-01-14 03:50:00,49.8,43.5,29.93,WNW,293,4.0,4.0,79,0.00,,,0.01,Wunderground v.1.15,2013-01-14 02:50:00,
2013-01-14 04:00:00,49.4,43.2,29.93,NW,311,3.0,3.0,79,0.00,,,0.01,Wunderground v.1.15,2013-01-14 03:00:00,
2013-01-14 04:10:00,48.9,42.7,29.92,NW,314,3.0,3.0,79,0.00,,,0.01,Wunderground v.1.15,2013-01-14 03:10:00,
2013-01-14 04:15:00,48.8,42.6,29.93,NW,315,3.0,3.0,79,0.00,,,0.01,Wunderground v.1.15,2013-01-14 03:15:00,
2013-01-14 04:25:00,48.8,42.6,29.93,NW,315,2.0,3.0,79,0.00,,,0.01,Wunderground v.1.15,2013-01-14 03:25:00,
2013-01-14 04:30:00,48.9,42.7,29.93,NW,315,2.0,2.0,79,0.00,,,0.01,Wunderground v.1.15,2013-01-14 03:30:00,
2013-01-14 04:40:00,49.2,43.0,29.93,NW,315,2.0,2.0,79,0.00,,,0.01,Wunderground v.1.15,2013-01-14 03:40:00,
2013-01-14 04:45:00,49.4,42.8,29.93,NW,315,2.0,2.0,78,0.00,,,0.01,Wunderground v.1.15,2013-01-14 03:45:00,
2013-01-14 04:55:00,49.4,42.8,29.93,NW,315,1.0,2.0,78,0.00,,,0.01,Wunderground v.1.15,2013-01-14 03:55:00,
2013-01-14 05:00:00,49.2,42.6,29.93,East,83,2.0,4.0,78,0.00,,,0.01,Wunderground v.1.15,2013-01-14 04:00:00,
2013-01-14 05:10:00,48.2,42.0,29.93,East,83,1.0,4.0,79,0.00,,,0.01,Wunderground v.1.15,2013-01-14 04:10:00,
2013-01-14 05:15:00,48.1,41.9,29.93,East,83,0.0,0.0,79,0.00,,,0.01,Wunderground v.1.15,2013-01-14 04:15:00,
2013-01-14 05:25:00,47.9,42.0,29.93,East,83,2.0,2.0,80,0.00,,,0.01,Wunderground v.1.15,2013-01-14 04:25:00,
2013-01-14 05:30:00,47.7,41.8,29.93,East,83,1.0,2.0,80,0.00,,,0.01,Wunderground v.1.15,2013-01-14 04:30:00,
2013-01-14 05:40:00,47.7,41.8,29.93,East,83,1.0,1.0,80,0.00,,,0.01,Wunderground v.1.15,2013-01-14 04:40:00,
2013-01-14 05:45:00,47.8,41.9,29.93,East,83,2.0,2.0,80,0.00,,,0.01,Wunderground v.1.15,2013-01-14 04:45:00,
2013-01-14 05:50:00,47.7,41.8,29.93,East,83,1.0,3.0,80,0.00,,,0.01,Wunderground v.1.15,2013-01-14 04:50:00,
2013-01-14 06:05:00,46.0,40.5,29.93,East,82,1.0,2.0,81,0.00,,,0.01,Wunderground v.1.15,2013-01-14 05:05:00,
2013-01-14 06:10:00,45.7,40.5,29.93,NE,41,1.0,5.0,82,0.00,,,0.01,Wunderground v.1.15,2013-01-14 05:10:00,
2013-01-14 06:15:00,45.4,40.5,29.93,NE,41,3.0,5.0,83,0.00,,,0.01,Wunderground v.1.15,2013-01-14 05:15:00,
2013-01-14 06:20:00,45.3,40.4,29.94,NE,41,3.0,3.0,83,0.00,,,0.01,Wunderground v.1.15,2013-01-14 05:20:00,
2013-01-14 06:30:00,45.5,40.9,29.93,NE,42,3.0,3.0,84,0.00,,,0.01,Wunderground v.1.15,2013-01-14 05:30:00,
2013-01-14 06:39:00,45.6,40.7,29.93,NE,42,3.0,3.0,83,0.00,,,0.01,Wunderground v.1.15,2013-01-14 05:39:00,
2013-01-14 06:45:00,45.8,40.9,29.94,NE,42,2.0,3.0,83,0.00,,,0.01,Wunderground v.1.15,2013-01-14 05:45:00,
2013-01-14 06:55:00,46.0,41.1,29.93,NE,42,1.0,1.0,83,0.00,,,0.01,Wunderground v.1.15,2013-01-14 05:55:00,
2013-01-14 07:00:00,46.0,40.8,29.93,NE,43,1.0,1.0,82,0.00,,,0.01,Wunderground v.1.15,2013-01-14 06:00:00,
2013-01-14 07:10:00,45.5,40.3,29.94,NW,305,3.0,3.0,82,0.00,,,0.01,Wunderground v.1.15,2013-01-14 06:10:00,
2013-01-14 07:20:00,45.3,40.1,29.95,NW,305,1.0,1.0,82,0.00,,,0.01,Wunderground v.1.15,2013-01-14 06:20:00,
2013-01-14 07:30:00,45.4,40.2,29.95,NW,305,0.0,1.0,82,0.00,,,0.01,Wunderground v.1.15,2013-01-14 06:30:00,
2013-01-14 07:40:00,45.7,40.5,29.95,NW,305,0.0,0.0,82,0.00,,,0.01,Wunderground v.1.15,2013-01-14 06:40:00,
2013-01-14 07:49:00,45.8,40.3,29.96,NW,305,1.0,2.0,81,0.00,,,0.01,Wunderground v.1.15,2013-01-14 06:49:00,
2013-01-14 07:54:00,45.7,40.2,29.96,NW,305,1.0,2.0,81,0.00,,,0.01,Wunderground v.1.15,2013-01-14 06:54:00,
2013-01-14 08:00:00,45.5,40.0,29.96,NW,305,1.0,1.0,81,0.00,,,0.01,Wunderground v.1.15,2013-01-14 07:00:00,
2013-01-14 08:09:00,45.2,39.7,29.97,NW,305,1.0,2.0,81,0.00,,,0.01,Wunderground v.1.15,2013-01-14 07:09:00,
2013-01-14 08:20:00,45.0,39.5,29.97,NW,305,2.0,2.0,81,0.00,,,0.01,Wunderground v.1.15,2013-01-14 07:20:00,
2013-01-14 08:30:00,45.2,40.0,29.97,NW,305,0.0,1.0,82,0.00,,,0.01,Wunderground v.1.15,2013-01-14 07:30:00,
2013-01-14 08:39:00,45.6,40.4,29.97,NW,305,0.0,0.0,82,0.00,,,0.01,Wunderground v.1.15,2013-01-14 07:39:00,
2013-01-14 08:44:00,45.8,40.6,29.97,NW,305,0.0,0.0,82,0.00,,,0.01,Wunderground v.1.15,2013-01-14 07:44:00,
2013-01-14 08:49:00,46.1,40.9,29.97,NW,305,0.0,0.0,82,0.00,,,0.01,Wunderground v.1.15,2013-01-14 07:49:00,
2013-01-14 08:59:00,46.3,40.8,29.97,NW,305,1.0,1.0,81,0.00,,,0.01,Wunderground v.1.15,2013-01-14 07:59:00,
2013-01-14 09:09:00,46.3,40.8,29.98,NW,305,1.0,1.0,81,0.00,,,0.01,Wunderground v.1.15,2013-01-14 08:09:00,
2013-01-14 09:14:00,46.5,41.0,29.98,NW,305,1.0,1.0,81,0.00,,,0.01,Wunderground v.1.15,2013-01-14 08:14:00,
2013-01-14 09:19:00,46.6,41.1,29.98,NW,308,1.0,2.0,81,0.00,,,0.01,Wunderground v.1.15,2013-01-14 08:19:00,
2013-01-14 09:34:00,47.2,41.7,29.98,NW,308,0.0,0.0,81,0.00,,,0.01,Wunderground v.1.15,2013-01-14 08:34:00,
2013-01-14 09:39:00,47.4,41.9,29.98,NW,308,0.0,0.0,81,0.00,,,0.01,Wunderground v.1.15,2013-01-14 08:39:00,
2013-01-14 09:50:00,48.3,43.1,29.99,NW,308,0.0,0.0,82,0.00,,,0.01,Wunderground v.1.15,2013-01-14 08:50:00,
2013-01-14 10:05:00,49.2,42.6,29.99,NW,308,1.0,1.0,78,0.00,,,0.01,Wunderground v.1.15,2013-01-14 09:05:00,
2013-01-14 10:10:00,49.5,42.6,29.99,NW,308,1.0,1.0,77,0.00,,,0.01,Wunderground v.1.15,2013-01-14 09:10:00,
2013-01-14 10:15:00,49.9,43.3,29.99,NW,308,0.0,0.0,78,0.00,,,0.01,Wunderground v.1.15,2013-01-14 09:15:00,
2013-01-14 10:25:00,50.1,42.8,30.00,NW,308,0.0,2.0,76,0.00,,,0.01,Wunderground v.1.15,2013-01-14 09:25:00,
2013-01-14 10:35:00,50.3,42.3,30.00,NW,308,0.0,0.0,74,0.00,,,0.01,Wunderground v.1.15,2013-01-14 09:35:00,
2013-01-14 10:40:00,50.6,42.6,30.00,NW,308,0.0,0.0,74,0.00,,,0.01,Wunderground v.1.15,2013-01-14 09:40:00,
2013-01-14 10:45:00,50.9,42.6,30.00,NW,308,0.0,1.0,73,0.00,,,0.01,Wunderground v.1.15,2013-01-14 09:45:00,
2013-01-14 10:55:00,51.2,42.5,30.00,NW,308,1.0,1.0,72,0.00,,,0.01,Wunderground v.1.15,2013-01-14 09:55:00,
2013-01-14 11:00:00,51.4,42.7,30.00,NW,308,2.0,2.0,72,0.00,,,0.01,Wunderground v.1.15,2013-01-14 10:00:00,
2013-01-14 11:10:00,51.8,42.7,30.00,WNW,295,1.0,2.0,71,0.00,,,0.01,Wunderground v.1.15,2013-01-14 10:10:00,
2013-01-14 11:20:00,52.0,42.9,30.00,SSW,202,2.0,2.0,71,0.00,,,0.01,Wunderground v.1.15,2013-01-14 10:20:00,
2013-01-14 11:30:00,52.2,42.7,30.00,SW,231,2.0,5.0,70,0.00,,,0.01,Wunderground v.1.15,2013-01-14 10:30:00,
2013-01-14 11:40:00,52.1,43.0,30.00,SW,231,3.0,5.0,71,0.00,,,0.01,Wunderground v.1.15,2013-01-14 10:40:00,
2013-01-14 11:45:00,52.3,43.2,30.00,SSW,212,3.0,4.0,71,0.00,,,0.01,Wunderground v.1.15,2013-01-14 10:45:00,
2013-01-14 11:55:00,52.5,43.0,30.00,SSW,211,4.0,4.0,70,0.00,,,0.01,Wunderground v.1.15,2013-01-14 10:55:00,
2013-01-14 12:05:00,53.0,43.5,29.99,SSW,213,3.0,4.0,70,0.00,,,0.01,Wunderground v.1.15,2013-01-14 11:05:00,
2013-01-14 12:10:00,53.1,43.2,29.99,SSW,213,2.0,4.0,69,0.00,,,0.01,Wunderground v.1.15,2013-01-14 11:10:00,
2013-01-14 12:15:00,52.9,43.0,29.99,SSW,213,3.0,4.0,69,0.00,,,0.01,Wunderground v.1.15,2013-01-14 11:15:00,
2013-01-14 12:20:00,52.7,42.8,29.99,SSW,194,3.0,7.0,69,0.00,,,0.01,Wunderground v.1.15,2013-01-14 11:20:00,
2013-01-14 12:34:00,52.8,43.7,29.98,SSW,212,4.0,6.0,71,0.00,,,0.01,Wunderground v.1.15,2013-01-14 11:34:00,
2013-01-14 12:40:00,53.1,43.2,29.98,SSW,195,3.0,6.0,69,0.00,,,0.01,Wunderground v.1.15,2013-01-14 11:40:00,
2013-01-14 12:45:00,53.6,43.7,29.97,SSW,192,3.0,3.0,69,0.00,,,0.01,Wunderground v.1.15,2013-01-14 11:45:00,
2013-01-14 12:54:00,54.0,43.7,29.97,SSW,203,2.0,3.0,68,0.00,,,0.01,Wunderground v.1.15,2013-01-14 11:54:00,
2013-01-14 13:04:00,54.2,43.9,29.97,SSW,200,2.0,2.0,68,0.00,,,0.01,Wunderground v.1.15,2013-01-14 12:04:00,
2013-01-14 13:10:00,54.4,43.7,29.97,SSW,200,2.0,2.0,67,0.00,,,0.01,Wunderground v.1.15,2013-01-14 12:10:00,
2013-01-14 13:15:00,54.8,44.0,29.96,North,355,2.0,5.0,67,0.00,,,0.01,Wunderground v.1.15,2013-01-14 12:15:00,
2013-01-14 13:20:00,54.6,42.3,29.96,NNE,13,3.0,5.0,63,0.00,,,0.01,Wunderground v.1.15,2013-01-14 12:20:00,
2013-01-14 13:30:00,54.6,42.3,29.96,WNW,282,5.0,5.0,63,0.00,,,0.01,Wunderground v.1.15,2013-01-14 12:30:00,
2013-01-14 13:39:00,53.8,41.1,29.95,NW,319,9.0,14.0,62,0.00,,,0.01,Wunderground v.1.15,2013-01-14 12:39:00,
2013-01-14 13:49:00,53.3,41.8,29.95,NW,310,7.0,8.0,65,0.00,,,0.01,Wunderground v.1.15,2013-01-14 12:49:00,
2013-01-14 14:04:00,53.9,40.8,29.95,WNW,288,7.0,10.0,61,0.00,,,0.01,Wunderground v.1.15,2013-01-14 13:04:00,
2013-01-14 14:09:00,53.8,40.7,29.95,NW,310,7.0,10.0,61,0.00,,,0.01,Wunderground v.1.15,2013-01-14 13:09:00,
2013-01-14 14:14:00,53.7,40.6,29.95,WNW,300,8.0,8.0,61,0.00,,,0.01,Wunderground v.1.15,2013-01-14 13:14:00,
2013-01-14 14:24:00,54.0,40.4,29.95,NW,309,6.0,7.0,60,0.00,,,0.01,Wunderground v.1.15,2013-01-14 13:24:00,
2013-01-14 14:29:00,53.9,39.5,29.95,West,272,7.0,8.0,58,0.00,,,0.01,Wunderground v.1.15,2013-01-14 13:29:00,
2013-01-14 14:40:00,54.1,40.5,29.95,NW,324,7.0,8.0,60,0.00,,,0.01,Wunderground v.1.15,2013-01-14 13:40:00,
2013-01-14 14:45:00,54.0,41.3,29.95,NW,323,7.0,7.0,62,0.00,,,0.01,Wunderground v.1.15,2013-01-14 13:45:00,
2013-01-14 14:55:00,53.8,40.2,29.95,NW,312,8.0,8.0,60,0.00,,,0.01,Wunderground v.1.15,2013-01-14 13:55:00,
2013-01-14 15:05:00,53.8,40.7,29.95,NW,315,8.0,13.0,61,0.00,,,0.01,Wunderground v.1.15,2013-01-14 14:05:00,
2013-01-14 15:10:00,53.6,40.0,29.95,NNW,348,9.0,13.0,60,0.00,,,0.01,Wunderground v.1.15,2013-01-14 14:10:00,
2013-01-14 15:20:00,53.5,40.8,29.95,NNW,335,7.0,9.0,62,0.00,,,0.01,Wunderground v.1.15,2013-01-14 14:20:00,
2013-01-14 15:25:00,53.7,41.0,29.95,NNW,336,7.0,7.0,62,0.00,,,0.01,Wunderground v.1.15,2013-01-14 14:25:00,
2013-01-14 15:30:00,53.8,41.1,29.95,WNW,283,7.0,7.0,62,0.00,,,0.01,Wunderground v.1.15,2013-01-14 14:30:00,
2013-01-14 15:40:00,53.8,40.2,29.95,WNW,296,7.0,7.0,60,0.00,,,0.01,Wunderground v.1.15,2013-01-14 14:40:00,
2013-01-14 15:45:00,53.7,40.6,29.95,WNW,291,7.0,8.0,61,0.00,,,0.01,Wunderground v.1.15,2013-01-14 14:45:00,
2013-01-14 15:50:00,53.9,39.5,29.95,WNW,293,8.0,9.0,58,0.00,,,0.01,Wunderground v.1.15,2013-01-14 14:50:00,
2013-01-14 16:00:00,53.9,40.3,29.96,NW,309,8.0,8.0,60,0.00,,,0.01,Wunderground v.1.15,2013-01-14 15:00:00,
2013-01-14 16:10:00,53.9,41.2,29.96,West,271,7.0,7.0,62,0.00,,,0.01,Wunderground v.1.15,2013-01-14 15:10:00,
2013-01-14 16:15:00,53.5,41.2,29.96,West,264,9.0,9.0,63,0.00,,,0.01,Wunderground v.1.15,2013-01-14 15:15:00,
2013-01-14 16:25:00,53.2,40.5,29.96,WNW,289,8.0,10.0,62,0.00,,,0.01,Wunderground v.1.15,2013-01-14 15:25:00,
2013-01-14 16:30:00,53.1,40.0,29.96,West,266,6.0,6.0,61,0.00,,,0.01,Wunderground v.1.15,2013-01-14 15:30:00,
2013-01-14 16:40:00,52.8,40.1,29.96,WNW,292,6.0,6.0,62,0.00,,,0.01,Wunderground v.1.15,2013-01-14 15:40:00,
2013-01-14 16:45:00,52.8,40.5,29.96,WNW,288,5.0,5.0,63,0.00,,,0.01,Wunderground v.1.15,2013-01-14 15:45:00,
2013-01-14 16:54:00,52.8,41.4,29.96,West,259,5.0,8.0,65,0.00,,,0.01,Wunderground v.1.15,2013-01-14 15:54:00,
2013-01-14 17:04:00,52.9,41.8,29.96,West,261,5.0,8.0,66,0.00,,,0.01,Wunderground v.1.15,2013-01-14 16:04:00,
2013-01-14 17:10:00,52.8,41.4,29.96,West,277,6.0,8.0,65,0.00,,,0.01,Wunderground v.1.15,2013-01-14 16:10:00,
2013-01-14 17:15:00,52.7,41.7,29.96,WNW,285,7.0,7.0,66,0.00,,,0.01,Wunderground v.1.15,2013-01-14 16:15:00,
2013-01-14 17:25:00,52.7,41.3,29.96,West,277,5.0,5.0,65,0.00,,,0.01,Wunderground v.1.15,2013-01-14 16:25:00,
2013-01-14 17:30:00,52.5,40.7,29.97,WNW,290,4.0,6.0,64,0.00,,,0.01,Wunderground v.1.15,2013-01-14 16:30:00,
2013-01-14 17:40:00,52.3,40.5,29.96,WNW,288,6.0,7.0,64,0.00,,,0.01,Wunderground v.1.15,2013-01-14 16:40:00,
2013-01-14 17:45:00,52.3,40.9,29.97,NW,314,7.0,7.0,65,0.00,,,0.01,Wunderground v.1.15,2013-01-14 16:45:00,
2013-01-14 17:50:00,52.2,41.2,29.97,NW,324,7.0,7.0,66,0.00,,,0.01,Wunderground v.1.15,2013-01-14 16:50:00,
2013-01-14 18:00:00,52.1,41.5,29.97,WNW,299,4.0,4.0,67,0.00,,,0.01,Wunderground v.1.15,2013-01-14 17:00:00,
2013-01-14 18:09:00,52.1,41.5,29.97,WNW,298,1.0,1.0,67,0.00,,,0.01,Wunderground v.1.15,2013-01-14 17:09:00,
2013-01-14 18:14:00,52.0,41.4,29.97,WNW,298,0.0,1.0,67,0.00,,,0.01,Wunderground v.1.15,2013-01-14 17:14:00,
2013-01-14 18:20:00,52.1,41.5,29.97,WNW,298,0.0,0.0,67,0.00,,,0.01,Wunderground v.1.15,2013-01-14 17:20:00,
2013-01-14 18:30:00,52.3,41.3,29.97,WSW,247,2.0,5.0,66,0.00,,,0.01,Wunderground v.1.15,2013-01-14 17:30:00,
2013-01-14 18:39:00,52.6,40.8,29.97,SW,215,2.0,3.0,64,0.00,,,0.01,Wunderground v.1.15,2013-01-14 17:39:00,
2013-01-14 18:45:00,52.8,40.5,29.98,SW,216,3.0,3.0,63,0.00,,,0.01,Wunderground v.1.15,2013-01-14 17:45:00,
2013-01-14 18:54:00,52.9,40.6,29.98,WSW,242,3.0,9.0,63,0.00,,,0.01,Wunderground v.1.15,2013-01-14 17:54:00,
2013-01-14 19:04:00,52.9,40.6,29.98,West,264,2.0,2.0,63,0.00,,,0.01,Wunderground v.1.15,2013-01-14 18:04:00,
2013-01-14 19:09:00,52.9,40.2,29.98,SW,236,2.0,3.0,62,0.00,,,0.01,Wunderground v.1.15,2013-01-14 18:09:00,
2013-01-14 19:19:00,52.9,40.2,29.98,SW,236,2.0,2.0,62,0.00,,,0.01,Wunderground v.1.15,2013-01-14 18:19:00,
2013-01-14 19:29:00,52.8,40.1,29.98,SW,236,1.0,2.0,62,0.00,,,0.01,Wunderground v.1.15,2013-01-14 18:29:00,
2013-01-14 19:39:00,52.8,40.1,29.98,WSW,238,2.0,4.0,62,0.00,,,0.01,Wunderground v.1.15,2013-01-14 18:39:00,
2013-01-14 19:44:00,52.8,39.7,29.98,NW,308,3.0,4.0,61,0.00,,,0.01,Wunderground v.1.15,2013-01-14 18:44:00,
2013-01-14 19:49:00,52.8,39.7,29.98,West,270,4.0,5.0,61,0.00,,,0.01,Wunderground v.1.15,2013-01-14 18:49:00,
2013-01-14 19:59:00,53.0,40.3,29.97,SW,236,3.0,3.0,62,0.00,,,0.01,Wunderground v.1.15,2013-01-14 18:59:00,
2013-01-14 20:09:00,53.0,39.9,29.97,WSW,258,1.0,4.0,61,0.00,,,0.01,Wunderground v.1.15,2013-01-14 19:09:00,
2013-01-14 20:14:00,53.1,40.0,29.97,WSW,246,3.0,8.0,61,0.00,,,0.01,Wunderground v.1.15,2013-01-14 19:14:00,
2013-01-14 20:24:00,53.6,40.5,29.97,WSW,250,4.0,4.0,61,0.00,,,0.01,Wunderground v.1.15,2013-01-14 19:24:00,
2013-01-14 20:34:00,53.5,39.9,29.97,NW,305,4.0,5.0,60,0.00,,,0.01,Wunderground v.1.15,2013-01-14 19:34:00,
2013-01-14 20:40:00,53.3,40.2,29.97,NW,307,3.0,5.0,61,0.00,,,0.01,Wunderground v.1.15,2013-01-14 19:40:00,
2013-01-14 20:45:00,53.3,40.2,29.97,SW,232,2.0,5.0,61,0.00,,,0.01,Wunderground v.1.15,2013-01-14 19:45:00,
2013-01-14 20:55:00,53.4,40.7,29.96,NNW,329,7.0,9.0,62,0.00,,,0.01,Wunderground v.1.15,2013-01-14 19:55:00,
2013-01-14 21:00:00,53.4,41.1,29.96,WNW,292,9.0,9.0,63,0.00,,,0.01,Wunderground v.1.15,2013-01-14 20:00:00,
2013-01-14 21:10:00,53.0,41.5,29.96,NW,308,4.0,4.0,65,0.00,,,0.01,Wunderground v.1.15,2013-01-14 20:10:00,
2013-01-14 21:15:00,53.1,41.2,29.97,WNW,284,7.0,7.0,64,0.00,,,0.01,Wunderground v.1.15,2013-01-14 20:15:00,
2013-01-14 21:25:00,53.2,41.3,29.97,WNW,292,9.0,9.0,64,0.00,,,0.01,Wunderground v.1.15,2013-01-14 20:25:00,
2013-01-14 21:30:00,53.2,41.3,29.97,NW,308,10.0,10.0,64,0.00,,,0.01,Wunderground v.1.15,2013-01-14 20:30:00,
2013-01-14 21:40:00,53.1,41.2,29.97,WNW,301,10.0,10.0,64,0.00,,,0.01,Wunderground v.1.15,2013-01-14 20:40:00,
2013-01-14 21:45:00,53.1,41.2,29.97,WNW,293,8.0,10.0,64,0.00,,,0.01,Wunderground v.1.15,2013-01-14 20:45:00,
2013-01-14 21:55:00,53.2,40.9,29.97,NW,324,10.0,10.0,63,0.00,,,0.01,Wunderground v.1.15,2013-01-14 20:55:00,
2013-01-14 22:05:00,53.4,41.1,29.97,NW,307,12.0,12.0,63,0.00,,,0.01,Wunderground v.1.15,2013-01-14 21:05:00,
2013-01-14 22:15:00,53.3,41.4,29.98,WNW,298,10.0,10.0,64,0.00,,,0.01,Wunderground v.1.15,2013-01-14 21:15:00,
2013-01-14 22:20:00,53.2,41.7,29.97,WNW,294,7.0,10.0,65,0.00,,,0.01,Wunderground v.1.15,2013-01-14 21:20:00,
2013-01-14 22:35:00,53.1,42.0,29.97,WNW,298,8.0,10.0,66,0.00,,,0.01,Wunderground v.1.15,2013-01-14 21:35:00,
2013-01-14 22:40:00,53.0,42.3,29.97,NW,317,8.0,10.0,67,0.00,,,0.01,Wunderground v.1.15,2013-01-14 21:40:00,
2013-01-14 22:50:00,52.8,42.5,29.97,WNW,298,7.0,8.0,68,0.00,,,0.01,Wunderground v.1.15,2013-01-14 21:50:00,
2013-01-14 23:00:00,52.8,42.5,29.98,WNW,303,6.0,6.0,68,0.00,,,0.01,Wunderground v.1.15,2013-01-14 22:00:00,
2013-01-14 23:10:00,52.1,42.6,29.98,NW,312,6.0,6.0,70,0.00,,,0.01,Wunderground v.1.15,2013-01-14 22:10:00,
2013-01-14 23:15:00,51.8,42.3,29.98,WNW,300,6.0,8.0,70,0.00,,,0.01,Wunderground v.1.15,2013-01-14 22:15:00,
2013-01-14 23:25:00,51.9,42.8,29.98,NW,312,6.0,8.0,71,0.00,,,0.01,Wunderground v.1.15,2013-01-14 22:25:00,
2013-01-14 23:35:00,51.3,42.6,29.98,NW,317,6.0,7.0,72,0.00,,,0.01,Wunderground v.1.15,2013-01-14 22:35:00,
2013-01-14 23:40:00,51.4,42.7,29.98,NW,312,7.0,9.0,72,0.00,,,0.01,Wunderground v.1.15,2013-01-14 22:40:00,
2013-01-14 23:45:00,51.6,42.9,29.98,NW,315,8.0,13.0,72,0.00,,,0.01,Wunderground v.1.15,2013-01-14 22:45:00,
2013-01-14 23:55:00,51.5,43.1,29.98,NW,320,10.0,12.0,73,0.00,,,0.01,Wunderground v.1.15,2013-01-14 22:55:00,